sensor_id;sensor_type;location;lat;lon;timestamp;P1;durP1;ratioP1;P2;durP2;ratioP2
48522;SDS011;34315;50.150;11.070;2022-12-18T00:01:35;26.70;;;11.27;;
48522;SDS011;34315;50.150;11.070;2022-12-18T00:06:37;33.37;;;12.60;;
48522;SDS011;34315;50.150;11.070;2022-12-18T00:11:37;29.50;;;13.33;;
48522;SDS011;34315;50.150;11.070;2022-12-18T00:16:37;29.57;;;11.90;;
48522;SDS011;34315;50.150;11.070;2022-12-18T00:21:38;30.23;;;12.50;;
48522;SDS011;34315;50.150;11.070;2022-12-18T00:26:38;27.13;;;11.93;;
48522;SDS011;34315;50.150;11.070;2022-12-18T00:31:39;32.53;;;12.83;;
48522;SDS011;34315;50.150;11.070;2022-12-18T00:36:40;28.63;;;12.00;;
48522;SDS011;34315;50.150;11.070;2022-12-18T00:41:41;28.63;;;12.00;;
48522;SDS011;34315;50.150;11.070;2022-12-18T00:46:59;25.20;;;10.43;;
48522;SDS011;34315;50.150;11.070;2022-12-18T00:52:00;24.05;;;11.10;;
48522;SDS011;34315;50.150;11.070;2022-12-18T00:57:00;28.17;;;12.67;;
48522;SDS011;34315;50.150;11.070;2022-12-18T01:02:01;31.47;;;12.03;;
48522;SDS011;34315;50.150;11.070;2022-12-18T01:07:01;30.63;;;11.07;;
48522;SDS011;34315;50.150;11.070;2022-12-18T01:12:01;25.33;;;11.47;;
48522;SDS011;34315;50.150;11.070;2022-12-18T01:17:04;29.50;;;12.77;;
48522;SDS011;34315;50.150;11.070;2022-12-18T01:22:06;35.80;;;12.93;;
48522;SDS011;34315;50.150;11.070;2022-12-18T01:27:07;27.30;;;12.30;;
48522;SDS011;34315;50.150;11.070;2022-12-18T01:32:07;28.77;;;12.10;;
48522;SDS011;34315;50.150;11.070;2022-12-18T01:37:08;31.30;;;11.93;;
48522;SDS011;34315;50.150;11.070;2022-12-18T01:42:10;33.90;;;12.37;;
48522;SDS011;34315;50.150;11.070;2022-12-18T01:47:14;26.93;;;12.57;;
48522;SDS011;34315;50.150;11.070;2022-12-18T01:52:17;27.13;;;13.02;;
48522;SDS011;34315;50.150;11.070;2022-12-18T01:57:18;34.37;;;12.20;;
48522;SDS011;34315;50.150;11.070;2022-12-18T02:02:20;30.80;;;11.27;;
48522;SDS011;34315;50.150;11.070;2022-12-18T02:08:06;24.73;;;10.53;;
48522;SDS011;34315;50.150;11.070;2022-12-18T02:12:48;29.20;;;11.57;;
48522;SDS011;34315;50.150;11.070;2022-12-18T02:18:02;23.70;;;10.57;;
48522;SDS011;34315;50.150;11.070;2022-12-18T02:28:27;26.90;;;10.60;;
48522;SDS011;34315;50.150;11.070;2022-12-18T02:33:33;25.60;;;10.17;;
48522;SDS011;34315;50.150;11.070;2022-12-18T02:38:35;28.97;;;10.40;;
48522;SDS011;34315;50.150;11.070;2022-12-18T02:43:46;27.93;;;10.60;;
48522;SDS011;34315;50.150;11.070;2022-12-18T02:48:49;33.50;;;10.43;;
48522;SDS011;34315;50.150;11.070;2022-12-18T02:53:53;29.90;;;9.70;;
48522;SDS011;34315;50.150;11.070;2022-12-18T02:59:13;23.43;;;9.70;;
48522;SDS011;34315;50.150;11.070;2022-12-18T03:09:39;26.57;;;10.20;;
48522;SDS011;34315;50.150;11.070;2022-12-18T03:14:41;27.98;;;9.82;;
48522;SDS011;34315;50.150;11.070;2022-12-18T03:19:44;22.53;;;8.93;;
48522;SDS011;34315;50.150;11.070;2022-12-18T03:24:45;27.00;;;9.97;;
48522;SDS011;34315;50.150;11.070;2022-12-18T03:29:52;21.53;;;7.80;;
48522;SDS011;34315;50.150;11.070;2022-12-18T03:35:00;22.67;;;9.27;;
48522;SDS011;34315;50.150;11.070;2022-12-18T03:40:06;22.70;;;8.93;;
48522;SDS011;34315;50.150;11.070;2022-12-18T03:45:09;19.87;;;8.30;;
48522;SDS011;34315;50.150;11.070;2022-12-18T03:50:18;26.53;;;9.13;;
48522;SDS011;34315;50.150;11.070;2022-12-18T03:55:23;20.30;;;8.20;;
48522;SDS011;34315;50.150;11.070;2022-12-18T04:00:31;22.30;;;8.50;;
48522;SDS011;34315;50.150;11.070;2022-12-18T04:05:40;25.40;;;9.93;;
48522;SDS011;34315;50.150;11.070;2022-12-18T04:10:42;25.90;;;10.53;;
48522;SDS011;34315;50.150;11.070;2022-12-18T04:15:43;24.80;;;9.27;;
48522;SDS011;34315;50.150;11.070;2022-12-18T04:20:48;22.40;;;9.43;;
48522;SDS011;34315;50.150;11.070;2022-12-18T04:25:49;22.47;;;9.07;;
48522;SDS011;34315;50.150;11.070;2022-12-18T04:31:00;19.10;;;7.60;;
48522;SDS011;34315;50.150;11.070;2022-12-18T04:36:01;19.93;;;8.67;;
48522;SDS011;34315;50.150;11.070;2022-12-18T04:41:02;26.07;;;8.60;;
48522;SDS011;34315;50.150;11.070;2022-12-18T04:46:04;21.80;;;9.37;;
48522;SDS011;34315;50.150;11.070;2022-12-18T04:51:06;25.10;;;7.83;;
48522;SDS011;34315;50.150;11.070;2022-12-18T04:56:07;16.80;;;7.80;;
48522;SDS011;34315;50.150;11.070;2022-12-18T05:01:10;28.37;;;10.03;;
48522;SDS011;34315;50.150;11.070;2022-12-18T05:06:11;16.57;;;7.40;;
48522;SDS011;34315;50.150;11.070;2022-12-18T05:11:12;24.93;;;9.80;;
48522;SDS011;34315;50.150;11.070;2022-12-18T05:16:15;17.13;;;7.82;;
48522;SDS011;34315;50.150;11.070;2022-12-18T05:21:16;16.63;;;7.17;;
48522;SDS011;34315;50.150;11.070;2022-12-18T05:26:17;22.27;;;9.10;;
48522;SDS011;34315;50.150;11.070;2022-12-18T05:31:18;21.93;;;8.23;;
48522;SDS011;34315;50.150;11.070;2022-12-18T05:36:18;18.90;;;7.47;;
48522;SDS011;34315;50.150;11.070;2022-12-18T05:41:19;23.13;;;8.83;;
48522;SDS011;34315;50.150;11.070;2022-12-18T05:46:19;16.90;;;6.27;;
48522;SDS011;34315;50.150;11.070;2022-12-18T05:51:20;20.47;;;8.67;;
48522;SDS011;34315;50.150;11.070;2022-12-18T05:56:22;20.77;;;6.57;;
48522;SDS011;34315;50.150;11.070;2022-12-18T06:01:24;22.03;;;9.00;;
48522;SDS011;34315;50.150;11.070;2022-12-18T06:06:26;20.60;;;8.97;;
48522;SDS011;34315;50.150;11.070;2022-12-18T06:11:27;16.60;;;7.80;;
48522;SDS011;34315;50.150;11.070;2022-12-18T06:16:27;24.47;;;8.27;;
48522;SDS011;34315;50.150;11.070;2022-12-18T06:21:28;23.17;;;9.00;;
48522;SDS011;34315;50.150;11.070;2022-12-18T06:26:29;22.80;;;8.30;;
48522;SDS011;34315;50.150;11.070;2022-12-18T06:31:30;20.50;;;7.63;;
48522;SDS011;34315;50.150;11.070;2022-12-18T06:36:30;23.13;;;8.80;;
48522;SDS011;34315;50.150;11.070;2022-12-18T06:41:31;16.17;;;7.20;;
48522;SDS011;34315;50.150;11.070;2022-12-18T06:46:31;27.80;;;8.70;;
48522;SDS011;34315;50.150;11.070;2022-12-18T06:51:32;18.90;;;8.73;;
48522;SDS011;34315;50.150;11.070;2022-12-18T06:56:32;18.70;;;8.03;;
48522;SDS011;34315;50.150;11.070;2022-12-18T07:01:33;17.30;;;7.67;;
48522;SDS011;34315;50.150;11.070;2022-12-18T07:06:33;15.87;;;6.73;;
48522;SDS011;34315;50.150;11.070;2022-12-18T07:11:34;21.00;;;7.90;;
48522;SDS011;34315;50.150;11.070;2022-12-18T07:16:34;20.23;;;7.73;;
48522;SDS011;34315;50.150;11.070;2022-12-18T07:21:34;20.97;;;7.67;;
48522;SDS011;34315;50.150;11.070;2022-12-18T07:26:35;24.63;;;9.33;;
48522;SDS011;34315;50.150;11.070;2022-12-18T07:31:35;20.93;;;8.13;;
48522;SDS011;34315;50.150;11.070;2022-12-18T07:36:36;23.97;;;8.73;;
48522;SDS011;34315;50.150;11.070;2022-12-18T07:41:36;26.23;;;9.53;;
48522;SDS011;34315;50.150;11.070;2022-12-18T07:46:42;23.20;;;8.80;;
48522;SDS011;34315;50.150;11.070;2022-12-18T07:51:43;20.33;;;7.13;;
48522;SDS011;34315;50.150;11.070;2022-12-18T07:56:46;21.20;;;7.13;;
48522;SDS011;34315;50.150;11.070;2022-12-18T08:01:46;24.87;;;9.73;;
48522;SDS011;34315;50.150;11.070;2022-12-18T08:06:46;22.80;;;9.23;;
48522;SDS011;34315;50.150;11.070;2022-12-18T08:11:47;19.77;;;9.43;;
48522;SDS011;34315;50.150;11.070;2022-12-18T08:16:47;22.93;;;9.17;;
48522;SDS011;34315;50.150;11.070;2022-12-18T08:21:48;21.53;;;9.37;;
48522;SDS011;34315;50.150;11.070;2022-12-18T08:26:48;17.00;;;7.50;;
48522;SDS011;34315;50.150;11.070;2022-12-18T08:31:48;23.23;;;9.23;;
48522;SDS011;34315;50.150;11.070;2022-12-18T08:36:49;18.83;;;8.70;;
48522;SDS011;34315;50.150;11.070;2022-12-18T08:41:49;24.90;;;9.33;;
48522;SDS011;34315;50.150;11.070;2022-12-18T08:47:08;29.87;;;13.10;;
48522;SDS011;34315;50.150;11.070;2022-12-18T08:52:09;26.07;;;10.83;;
48522;SDS011;34315;50.150;11.070;2022-12-18T08:57:09;22.48;;;9.43;;
48522;SDS011;34315;50.150;11.070;2022-12-18T09:02:10;25.15;;;9.30;;
48522;SDS011;34315;50.150;11.070;2022-12-18T09:07:11;28.88;;;10.70;;
48522;SDS011;34315;50.150;11.070;2022-12-18T09:12:11;19.08;;;9.50;;
48522;SDS011;34315;50.150;11.070;2022-12-18T09:17:12;25.58;;;10.45;;
48522;SDS011;34315;50.150;11.070;2022-12-18T09:22:12;29.13;;;10.35;;
48522;SDS011;34315;50.150;11.070;2022-12-18T09:27:13;24.27;;;9.93;;
48522;SDS011;34315;50.150;11.070;2022-12-18T09:32:13;27.92;;;9.88;;
48522;SDS011;34315;50.150;11.070;2022-12-18T09:37:14;21.30;;;9.40;;
48522;SDS011;34315;50.150;11.070;2022-12-18T09:42:17;22.10;;;9.50;;
48522;SDS011;34315;50.150;11.070;2022-12-18T09:52:40;24.50;;;9.40;;
48522;SDS011;34315;50.150;11.070;2022-12-18T09:58:45;25.20;;;10.80;;
48522;SDS011;34315;50.150;11.070;2022-12-18T10:03:19;22.88;;;10.55;;
48522;SDS011;34315;50.150;11.070;2022-12-18T10:13:43;22.67;;;9.43;;
48522;SDS011;34315;50.150;11.070;2022-12-18T10:23:54;29.80;;;11.23;;
48522;SDS011;34315;50.150;11.070;2022-12-18T10:29:04;27.08;;;10.02;;
48522;SDS011;34315;50.150;11.070;2022-12-18T10:34:17;25.10;;;10.57;;
48522;SDS011;34315;50.150;11.070;2022-12-18T10:39:21;18.98;;;8.95;;
48522;SDS011;34315;50.150;11.070;2022-12-18T10:44:23;21.80;;;9.35;;
48522;SDS011;34315;50.150;11.070;2022-12-18T10:49:29;21.83;;;9.75;;
48522;SDS011;34315;50.150;11.070;2022-12-18T10:54:32;21.52;;;10.02;;
48522;SDS011;34315;50.150;11.070;2022-12-18T10:59:35;21.70;;;10.02;;
48522;SDS011;34315;50.150;11.070;2022-12-18T11:04:51;24.15;;;10.10;;
48522;SDS011;34315;50.150;11.070;2022-12-18T11:10:01;21.90;;;10.32;;
48522;SDS011;34315;50.150;11.070;2022-12-18T11:15:01;23.38;;;9.52;;
48522;SDS011;34315;50.150;11.070;2022-12-18T11:20:04;20.77;;;10.77;;
48522;SDS011;34315;50.150;11.070;2022-12-18T11:30:25;22.90;;;9.70;;
48522;SDS011;34315;50.150;11.070;2022-12-18T11:40:35;22.30;;;10.00;;
48522;SDS011;34315;50.150;11.070;2022-12-18T11:45:56;25.10;;;9.82;;
48522;SDS011;34315;50.150;11.070;2022-12-18T11:51:01;17.88;;;8.63;;
48522;SDS011;34315;50.150;11.070;2022-12-18T12:06:43;25.15;;;9.80;;
48522;SDS011;34315;50.150;11.070;2022-12-18T12:12:05;17.75;;;8.85;;
48522;SDS011;34315;50.150;11.070;2022-12-18T12:17:42;21.17;;;9.05;;
48522;SDS011;34315;50.150;11.070;2022-12-18T12:23:01;19.42;;;9.50;;
48522;SDS011;34315;50.150;11.070;2022-12-18T12:38:54;22.00;;;9.47;;
48522;SDS011;34315;50.150;11.070;2022-12-18T12:43:56;22.25;;;9.55;;
48522;SDS011;34315;50.150;11.070;2022-12-18T12:49:19;20.73;;;8.70;;
48522;SDS011;34315;50.150;11.070;2022-12-18T12:54:21;21.02;;;9.82;;
48522;SDS011;34315;50.150;11.070;2022-12-18T13:04:30;20.77;;;10.02;;
48522;SDS011;34315;50.150;11.070;2022-12-18T13:15:24;16.88;;;8.57;;
48522;SDS011;34315;50.150;11.070;2022-12-18T13:20:25;19.88;;;9.25;;
48522;SDS011;34315;50.150;11.070;2022-12-18T13:25:37;20.90;;;8.75;;
48522;SDS011;34315;50.150;11.070;2022-12-18T13:30:42;18.05;;;9.02;;
48522;SDS011;34315;50.150;11.070;2022-12-18T13:45:48;24.50;;;10.32;;
48522;SDS011;34315;50.150;11.070;2022-12-18T13:51:09;24.95;;;10.07;;
48522;SDS011;34315;50.150;11.070;2022-12-18T13:56:14;28.48;;;12.60;;
48522;SDS011;34315;50.150;11.070;2022-12-18T14:01:22;27.63;;;12.05;;
48522;SDS011;34315;50.150;11.070;2022-12-18T14:06:23;21.88;;;9.45;;
48522;SDS011;34315;50.150;11.070;2022-12-18T14:11:24;21.55;;;8.98;;
48522;SDS011;34315;50.150;11.070;2022-12-18T14:16:25;21.30;;;9.05;;
48522;SDS011;34315;50.150;11.070;2022-12-18T14:21:28;25.17;;;9.73;;
48522;SDS011;34315;50.150;11.070;2022-12-18T14:26:30;21.92;;;10.40;;
48522;SDS011;34315;50.150;11.070;2022-12-18T14:31:33;27.05;;;12.00;;
48522;SDS011;34315;50.150;11.070;2022-12-18T14:36:33;25.75;;;11.55;;
48522;SDS011;34315;50.150;11.070;2022-12-18T14:41:33;32.83;;;13.27;;
48522;SDS011;34315;50.150;11.070;2022-12-18T14:46:38;35.88;;;13.57;;
48522;SDS011;34315;50.150;11.070;2022-12-18T14:56:43;28.02;;;11.95;;
48522;SDS011;34315;50.150;11.070;2022-12-18T15:02:10;30.35;;;11.80;;
48522;SDS011;34315;50.150;11.070;2022-12-18T15:07:18;29.70;;;13.48;;
48522;SDS011;34315;50.150;11.070;2022-12-18T15:12:22;27.90;;;13.40;;
48522;SDS011;34315;50.150;11.070;2022-12-18T15:17:26;25.83;;;12.93;;
48522;SDS011;34315;50.150;11.070;2022-12-18T15:22:30;27.17;;;13.95;;
48522;SDS011;34315;50.150;11.070;2022-12-18T15:27:35;28.20;;;11.93;;
48522;SDS011;34315;50.150;11.070;2022-12-18T15:32:37;22.08;;;10.40;;
48522;SDS011;34315;50.150;11.070;2022-12-18T15:37:39;21.15;;;8.18;;
48522;SDS011;34315;50.150;11.070;2022-12-18T15:42:39;19.98;;;9.10;;
48522;SDS011;34315;50.150;11.070;2022-12-18T15:47:58;21.33;;;9.05;;
48522;SDS011;34315;50.150;11.070;2022-12-18T15:52:59;27.42;;;11.52;;
48522;SDS011;34315;50.150;11.070;2022-12-18T15:57:59;26.67;;;14.13;;
48522;SDS011;34315;50.150;11.070;2022-12-18T16:03:00;25.63;;;12.65;;
48522;SDS011;34315;50.150;11.070;2022-12-18T16:08:00;27.50;;;10.15;;
48522;SDS011;34315;50.150;11.070;2022-12-18T16:13:01;30.25;;;11.20;;
48522;SDS011;34315;50.150;11.070;2022-12-18T16:18:01;18.88;;;8.75;;
48522;SDS011;34315;50.150;11.070;2022-12-18T16:23:01;24.73;;;10.60;;
48522;SDS011;34315;50.150;11.070;2022-12-18T16:28:02;20.63;;;9.90;;
48522;SDS011;34315;50.150;11.070;2022-12-18T16:33:02;24.60;;;10.00;;
48522;SDS011;34315;50.150;11.070;2022-12-18T16:38:03;20.75;;;10.68;;
48522;SDS011;34315;50.150;11.070;2022-12-18T16:43:03;25.58;;;11.93;;
48522;SDS011;34315;50.150;11.070;2022-12-18T16:48:03;23.02;;;10.50;;
48522;SDS011;34315;50.150;11.070;2022-12-18T16:53:04;22.52;;;11.32;;
48522;SDS011;34315;50.150;11.070;2022-12-18T16:58:04;31.27;;;15.00;;
48522;SDS011;34315;50.150;11.070;2022-12-18T17:03:05;30.75;;;12.63;;
48522;SDS011;34315;50.150;11.070;2022-12-18T17:08:05;24.88;;;11.77;;
48522;SDS011;34315;50.150;11.070;2022-12-18T17:13:05;21.88;;;11.50;;
48522;SDS011;34315;50.150;11.070;2022-12-18T17:18:06;24.33;;;11.23;;
48522;SDS011;34315;50.150;11.070;2022-12-18T17:23:07;29.25;;;12.40;;
48522;SDS011;34315;50.150;11.070;2022-12-18T17:28:07;26.45;;;12.32;;
48522;SDS011;34315;50.150;11.070;2022-12-18T17:33:08;27.55;;;12.48;;
48522;SDS011;34315;50.150;11.070;2022-12-18T17:38:08;25.63;;;11.82;;
48522;SDS011;34315;50.150;11.070;2022-12-18T17:43:09;25.30;;;12.60;;
48522;SDS011;34315;50.150;11.070;2022-12-18T17:48:09;20.38;;;10.63;;
48522;SDS011;34315;50.150;11.070;2022-12-18T17:53:10;24.60;;;10.75;;
48522;SDS011;34315;50.150;11.070;2022-12-18T17:58:10;22.70;;;10.27;;
48522;SDS011;34315;50.150;11.070;2022-12-18T18:03:11;26.92;;;11.52;;
48522;SDS011;34315;50.150;11.070;2022-12-18T18:08:11;22.73;;;10.30;;
48522;SDS011;34315;50.150;11.070;2022-12-18T18:13:20;23.90;;;10.90;;
48522;SDS011;34315;50.150;11.070;2022-12-18T18:18:41;25.42;;;12.73;;
48522;SDS011;34315;50.150;11.070;2022-12-18T18:23:41;26.17;;;13.00;;
48522;SDS011;34315;50.150;11.070;2022-12-18T18:28:42;23.02;;;11.40;;
48522;SDS011;34315;50.150;11.070;2022-12-18T18:33:42;24.70;;;10.48;;
48522;SDS011;34315;50.150;11.070;2022-12-18T18:38:42;25.75;;;12.98;;
48522;SDS011;34315;50.150;11.070;2022-12-18T18:43:43;27.77;;;13.13;;
48522;SDS011;34315;50.150;11.070;2022-12-18T18:48:43;25.90;;;13.13;;
48522;SDS011;34315;50.150;11.070;2022-12-18T18:53:45;31.30;;;14.40;;
48522;SDS011;34315;50.150;11.070;2022-12-18T18:58:46;29.50;;;13.25;;
48522;SDS011;34315;50.150;11.070;2022-12-18T19:03:47;23.27;;;11.60;;
48522;SDS011;34315;50.150;11.070;2022-12-18T19:08:48;25.15;;;11.40;;
48522;SDS011;34315;50.150;11.070;2022-12-18T19:13:49;21.98;;;10.23;;
48522;SDS011;34315;50.150;11.070;2022-12-18T19:18:49;20.35;;;9.88;;
48522;SDS011;34315;50.150;11.070;2022-12-18T19:23:51;17.83;;;8.82;;
48522;SDS011;34315;50.150;11.070;2022-12-18T19:28:51;17.77;;;9.30;;
48522;SDS011;34315;50.150;11.070;2022-12-18T19:33:52;23.17;;;10.85;;
48522;SDS011;34315;50.150;11.070;2022-12-18T19:38:53;18.25;;;9.35;;
48522;SDS011;34315;50.150;11.070;2022-12-18T19:43:55;20.17;;;9.55;;
48522;SDS011;34315;50.150;11.070;2022-12-18T19:48:57;23.35;;;9.93;;
48522;SDS011;34315;50.150;11.070;2022-12-18T19:53:58;20.67;;;10.00;;
48522;SDS011;34315;50.150;11.070;2022-12-18T19:58:59;37.08;;;13.55;;
48522;SDS011;34315;50.150;11.070;2022-12-18T20:04:00;31.13;;;13.45;;
48522;SDS011;34315;50.150;11.070;2022-12-18T20:09:03;30.05;;;12.02;;
48522;SDS011;34315;50.150;11.070;2022-12-18T20:14:04;26.15;;;10.85;;
48522;SDS011;34315;50.150;11.070;2022-12-18T20:19:05;21.23;;;9.48;;
48522;SDS011;34315;50.150;11.070;2022-12-18T20:24:06;26.13;;;10.27;;
48522;SDS011;34315;50.150;11.070;2022-12-18T20:29:07;22.05;;;8.93;;
48522;SDS011;34315;50.150;11.070;2022-12-18T20:34:08;21.05;;;9.32;;
48522;SDS011;34315;50.150;11.070;2022-12-18T20:39:08;18.42;;;8.63;;
48522;SDS011;34315;50.150;11.070;2022-12-18T20:44:13;21.42;;;8.38;;
48522;SDS011;34315;50.150;11.070;2022-12-18T20:49:14;17.30;;;8.00;;
48522;SDS011;34315;50.150;11.070;2022-12-18T20:54:15;17.25;;;8.13;;
48522;SDS011;34315;50.150;11.070;2022-12-18T20:59:15;22.65;;;10.27;;
48522;SDS011;34315;50.150;11.070;2022-12-18T21:04:16;22.17;;;9.50;;
48522;SDS011;34315;50.150;11.070;2022-12-18T21:09:18;22.52;;;9.18;;
48522;SDS011;34315;50.150;11.070;2022-12-18T21:14:19;18.35;;;8.13;;
48522;SDS011;34315;50.150;11.070;2022-12-18T21:19:22;20.95;;;9.05;;
48522;SDS011;34315;50.150;11.070;2022-12-18T21:24:24;21.63;;;8.50;;
48522;SDS011;34315;50.150;11.070;2022-12-18T21:29:25;19.52;;;8.77;;
48522;SDS011;34315;50.150;11.070;2022-12-18T21:34:27;22.33;;;8.45;;
48522;SDS011;34315;50.150;11.070;2022-12-18T21:39:28;19.80;;;8.82;;
48522;SDS011;34315;50.150;11.070;2022-12-18T21:44:29;18.77;;;8.18;;
48522;SDS011;34315;50.150;11.070;2022-12-18T21:49:30;21.67;;;9.18;;
48522;SDS011;34315;50.150;11.070;2022-12-18T21:54:31;22.00;;;9.02;;
48522;SDS011;34315;50.150;11.070;2022-12-18T21:59:32;21.05;;;9.23;;
48522;SDS011;34315;50.150;11.070;2022-12-18T22:04:34;22.85;;;8.88;;
48522;SDS011;34315;50.150;11.070;2022-12-18T22:09:35;27.08;;;9.93;;
48522;SDS011;34315;50.150;11.070;2022-12-18T22:14:35;26.30;;;10.48;;
48522;SDS011;34315;50.150;11.070;2022-12-18T22:19:35;15.80;;;8.15;;
48522;SDS011;34315;50.150;11.070;2022-12-18T22:24:36;19.33;;;9.45;;
48522;SDS011;34315;50.150;11.070;2022-12-18T22:29:36;21.75;;;8.70;;
48522;SDS011;34315;50.150;11.070;2022-12-18T22:34:56;20.02;;;9.40;;
48522;SDS011;34315;50.150;11.070;2022-12-18T22:39:56;19.38;;;8.55;;
48522;SDS011;34315;50.150;11.070;2022-12-18T22:44:56;27.95;;;8.32;;
48522;SDS011;34315;50.150;11.070;2022-12-18T22:49:57;20.23;;;8.90;;
48522;SDS011;34315;50.150;11.070;2022-12-18T22:54:57;22.58;;;9.25;;
48522;SDS011;34315;50.150;11.070;2022-12-18T22:59:58;20.23;;;8.88;;
48522;SDS011;34315;50.150;11.070;2022-12-18T23:04:58;26.02;;;9.35;;
48522;SDS011;34315;50.150;11.070;2022-12-18T23:09:59;17.92;;;8.25;;
48522;SDS011;34315;50.150;11.070;2022-12-18T23:14:59;22.85;;;8.80;;
48522;SDS011;34315;50.150;11.070;2022-12-18T23:20:00;20.40;;;8.43;;
48522;SDS011;34315;50.150;11.070;2022-12-18T23:25:00;23.27;;;9.25;;
48522;SDS011;34315;50.150;11.070;2022-12-18T23:30:01;22.02;;;9.10;;
48522;SDS011;34315;50.150;11.070;2022-12-18T23:35:01;23.45;;;8.95;;
48522;SDS011;34315;50.150;11.070;2022-12-18T23:40:02;19.40;;;8.88;;
48522;SDS011;34315;50.150;11.070;2022-12-18T23:45:03;23.90;;;10.23;;
48522;SDS011;34315;50.150;11.070;2022-12-18T23:50:03;25.50;;;9.52;;
48522;SDS011;34315;50.150;11.070;2022-12-18T23:55:04;22.92;;;8.93;;
